sensor_id;sensor_type;location;lat;lon;timestamp;pressure;altitude;pressure_sealevel;temperature;humidity
26539;BME280;14205;43.200;24.170;2022-07-23T00:00:44;99992.44;;;23.81;53.79
26539;BME280;14205;43.200;24.170;2022-07-23T00:03:09;99997.75;;;23.98;53.15
26539;BME280;14205;43.200;24.170;2022-07-23T00:05:35;99996.06;;;24.13;52.95
26539;BME280;14205;43.200;24.170;2022-07-23T00:08:01;99996.91;;;24.18;52.46
26539;BME280;14205;43.200;24.170;2022-07-23T00:10:26;99998.03;;;23.80;53.67
26539;BME280;14205;43.200;24.170;2022-07-23T00:12:52;99992.44;;;23.81;53.82
26539;BME280;14205;43.200;24.170;2022-07-23T00:15:17;99993.34;;;23.71;54.09
26539;BME280;14205;43.200;24.170;2022-07-23T00:17:43;99995.13;;;23.81;53.93
26539;BME280;14205;43.200;24.170;2022-07-23T00:20:09;99988.97;;;23.65;54.17
26539;BME280;14205;43.200;24.170;2022-07-23T00:22:34;99980.16;;;23.85;53.84
26539;BME280;14205;43.200;24.170;2022-07-23T00:25:00;99989.19;;;23.79;53.68
26539;BME280;14205;43.200;24.170;2022-07-23T00:27:26;99984.22;;;23.50;54.55
26539;BME280;14205;43.200;24.170;2022-07-23T00:29:51;99995.22;;;23.16;55.66
26539;BME280;14205;43.200;24.170;2022-07-23T00:32:17;99984.56;;;23.05;55.72
26539;BME280;14205;43.200;24.170;2022-07-23T00:34:42;99980.38;;;22.81;56.47
26539;BME280;14205;43.200;24.170;2022-07-23T00:37:07;99986.28;;;22.95;56.05
26539;BME280;14205;43.200;24.170;2022-07-23T00:39:33;99980.13;;;23.10;55.72
26539;BME280;14205;43.200;24.170;2022-07-23T00:41:58;99975.91;;;23.14;55.65
26539;BME280;14205;43.200;24.170;2022-07-23T00:44:26;99975.91;;;23.14;55.70
26539;BME280;14205;43.200;24.170;2022-07-23T00:46:54;99979.63;;;22.97;56.27
26539;BME280;14205;43.200;24.170;2022-07-23T00:49:25;99976.56;;;22.77;56.75
26539;BME280;14205;43.200;24.170;2022-07-23T00:51:51;99977.78;;;22.70;56.95
26539;BME280;14205;43.200;24.170;2022-07-23T00:54:18;99974.56;;;22.40;57.64
26539;BME280;14205;43.200;24.170;2022-07-23T00:56:44;99975.84;;;22.66;56.95
26539;BME280;14205;43.200;24.170;2022-07-23T00:59:10;99971.22;;;22.61;56.95
26539;BME280;14205;43.200;24.170;2022-07-23T01:01:36;99976.28;;;22.90;56.26
26539;BME280;14205;43.200;24.170;2022-07-23T01:04:01;99968.53;;;22.89;56.30
26539;BME280;14205;43.200;24.170;2022-07-23T01:06:27;99971.50;;;22.92;56.17
26539;BME280;14205;43.200;24.170;2022-07-23T01:08:54;99977.63;;;22.76;56.63
26539;BME280;14205;43.200;24.170;2022-07-23T01:11:20;99976.75;;;22.71;56.62
26539;BME280;14205;43.200;24.170;2022-07-23T01:13:46;99971.41;;;22.71;56.71
26539;BME280;14205;43.200;24.170;2022-07-23T01:16:12;99976.19;;;22.69;56.73
26539;BME280;14205;43.200;24.170;2022-07-23T01:18:38;99973.66;;;22.79;56.60
26539;BME280;14205;43.200;24.170;2022-07-23T01:21:03;99969.19;;;22.68;56.94
26539;BME280;14205;43.200;24.170;2022-07-23T01:23:28;99966.44;;;22.63;56.85
26539;BME280;14205;43.200;24.170;2022-07-23T01:25:55;99964.63;;;22.52;57.13
26539;BME280;14205;43.200;24.170;2022-07-23T01:28:21;99964.94;;;22.39;57.39
26539;BME280;14205;43.200;24.170;2022-07-23T01:30:46;99971.19;;;22.45;57.30
26539;BME280;14205;43.200;24.170;2022-07-23T01:33:12;99965.94;;;22.50;56.92
26539;BME280;14205;43.200;24.170;2022-07-23T01:35:38;99964.13;;;22.39;57.46
26539;BME280;14205;43.200;24.170;2022-07-23T01:38:03;99955.03;;;22.40;57.36
26539;BME280;14205;43.200;24.170;2022-07-23T01:40:29;99964.13;;;22.39;57.65
26539;BME280;14205;43.200;24.170;2022-07-23T01:42:54;99962.69;;;22.48;57.25
26539;BME280;14205;43.200;24.170;2022-07-23T01:45:19;99964.41;;;22.70;57.00
26539;BME280;14205;43.200;24.170;2022-07-23T01:47:46;99964.81;;;22.78;56.41
26539;BME280;14205;43.200;24.170;2022-07-23T01:50:11;99969.13;;;22.63;56.90
26539;BME280;14205;43.200;24.170;2022-07-23T01:52:37;99965.25;;;22.43;57.65
26539;BME280;14205;43.200;24.170;2022-07-23T01:55:02;99961.84;;;22.47;57.53
26539;BME280;14205;43.200;24.170;2022-07-23T01:57:28;99961.25;;;22.73;56.79
26539;BME280;14205;43.200;24.170;2022-07-23T01:59:53;99956.34;;;22.54;57.06
26539;BME280;14205;43.200;24.170;2022-07-23T02:02:19;99962.84;;;22.58;57.28
26539;BME280;14205;43.200;24.170;2022-07-23T02:04:44;99964.22;;;22.60;57.07
26539;BME280;14205;43.200;24.170;2022-07-23T02:07:09;99960.91;;;22.53;57.57
26539;BME280;14205;43.200;24.170;2022-07-23T02:09:35;99957.03;;;22.61;57.11
26539;BME280;14205;43.200;24.170;2022-07-23T02:12:01;99964.34;;;22.65;57.16
26539;BME280;14205;43.200;24.170;2022-07-23T02:14:26;99970.97;;;22.79;56.39
26539;BME280;14205;43.200;24.170;2022-07-23T02:16:52;99969.69;;;22.65;57.03
26539;BME280;14205;43.200;24.170;2022-07-23T02:19:17;99978.44;;;22.61;57.35
26539;BME280;14205;43.200;24.170;2022-07-23T02:21:42;99972.22;;;22.72;57.40
26539;BME280;14205;43.200;24.170;2022-07-23T02:24:08;99971.28;;;22.94;56.75
26539;BME280;14205;43.200;24.170;2022-07-23T02:26:33;99977.13;;;22.79;56.84
26539;BME280;14205;43.200;24.170;2022-07-23T02:29:01;99974.47;;;22.63;57.26
26539;BME280;14205;43.200;24.170;2022-07-23T02:31:28;99973.72;;;22.84;56.72
26539;BME280;14205;43.200;24.170;2022-07-23T02:33:53;99971.88;;;22.52;57.86
26539;BME280;14205;43.200;24.170;2022-07-23T02:36:19;99965.03;;;22.88;56.85
26539;BME280;14205;43.200;24.170;2022-07-23T02:38:44;99967.41;;;22.57;57.63
26539;BME280;14205;43.200;24.170;2022-07-23T02:41:10;99973.25;;;22.54;57.56
26539;BME280;14205;43.200;24.170;2022-07-23T02:43:35;99976.91;;;22.81;57.13
26539;BME280;14205;43.200;24.170;2022-07-23T02:46:00;99975.97;;;22.87;56.63
26539;BME280;14205;43.200;24.170;2022-07-23T02:48:26;99985.63;;;22.88;56.84
26539;BME280;14205;43.200;24.170;2022-07-23T02:50:51;99983.63;;;22.83;57.04
26539;BME280;14205;43.200;24.170;2022-07-23T02:53:17;99987.91;;;22.68;57.86
26539;BME280;14205;43.200;24.170;2022-07-23T02:55:43;99983.25;;;22.47;58.39
26539;BME280;14205;43.200;24.170;2022-07-23T02:58:08;99982.19;;;22.76;57.11
26539;BME280;14205;43.200;24.170;2022-07-23T03:00:36;99990.94;;;22.72;57.62
26539;BME280;14205;43.200;24.170;2022-07-23T03:03:01;99990.28;;;22.81;56.88
26539;BME280;14205;43.200;24.170;2022-07-23T03:05:27;99986.19;;;22.62;57.50
26539;BME280;14205;43.200;24.170;2022-07-23T03:07:52;100003.41;;;22.66;57.07
26539;BME280;14205;43.200;24.170;2022-07-23T03:10:17;99997.19;;;22.49;57.62
26539;BME280;14205;43.200;24.170;2022-07-23T03:12:43;100007.00;;;22.44;57.87
26539;BME280;14205;43.200;24.170;2022-07-23T03:15:09;100009.81;;;22.38;58.07
26539;BME280;14205;43.200;24.170;2022-07-23T03:17:34;100007.88;;;22.61;57.62
26539;BME280;14205;43.200;24.170;2022-07-23T03:20:00;100019.00;;;22.69;57.25
26539;BME280;14205;43.200;24.170;2022-07-23T03:22:25;100020.91;;;22.57;57.77
26539;BME280;14205;43.200;24.170;2022-07-23T03:24:51;100010.34;;;22.51;57.70
26539;BME280;14205;43.200;24.170;2022-07-23T03:27:24;100015.47;;;22.52;57.72
26539;BME280;14205;43.200;24.170;2022-07-23T03:29:51;100020.00;;;22.52;57.95
26539;BME280;14205;43.200;24.170;2022-07-23T03:32:17;100026.44;;;22.39;57.87
26539;BME280;14205;43.200;24.170;2022-07-23T03:34:42;100021.19;;;22.44;58.00
26539;BME280;14205;43.200;24.170;2022-07-23T03:37:08;100023.50;;;22.52;57.62
26539;BME280;14205;43.200;24.170;2022-07-23T03:39:33;100028.84;;;22.69;57.34
26539;BME280;14205;43.200;24.170;2022-07-23T03:41:59;100034.28;;;22.57;57.48
26539;BME280;14205;43.200;24.170;2022-07-23T03:44:24;100021.47;;;22.59;57.62
26539;BME280;14205;43.200;24.170;2022-07-23T03:46:49;100020.47;;;22.49;57.94
26539;BME280;14205;43.200;24.170;2022-07-23T03:49:15;100025.59;;;22.50;57.70
26539;BME280;14205;43.200;24.170;2022-07-23T03:51:40;100031.38;;;22.75;57.47
26539;BME280;14205;43.200;24.170;2022-07-23T03:54:06;100033.25;;;22.74;57.32
26539;BME280;14205;43.200;24.170;2022-07-23T03:56:31;100026.59;;;22.61;57.78
26539;BME280;14205;43.200;24.170;2022-07-23T03:58:56;100026.75;;;22.71;57.61
26539;BME280;14205;43.200;24.170;2022-07-23T04:01:22;100027.66;;;23.04;56.36
26539;BME280;14205;43.200;24.170;2022-07-23T04:03:47;100030.16;;;22.94;56.61
26539;BME280;14205;43.200;24.170;2022-07-23T04:06:13;100035.59;;;22.99;56.64
26539;BME280;14205;43.200;24.170;2022-07-23T04:08:38;100041.13;;;23.41;55.56
26539;BME280;14205;43.200;24.170;2022-07-23T04:11:04;100032.38;;;23.29;55.96
26539;BME280;14205;43.200;24.170;2022-07-23T04:13:29;100028.94;;;23.17;56.28
26539;BME280;14205;43.200;24.170;2022-07-23T04:15:55;100037.56;;;23.19;56.61
26539;BME280;14205;43.200;24.170;2022-07-23T04:18:20;100037.78;;;23.02;57.10
26539;BME280;14205;43.200;24.170;2022-07-23T04:20:50;100039.03;;;23.27;56.26
26539;BME280;14205;43.200;24.170;2022-07-23T04:23:16;100043.41;;;23.16;56.80
26539;BME280;14205;43.200;24.170;2022-07-23T04:25:42;100050.22;;;23.08;56.71
26539;BME280;14205;43.200;24.170;2022-07-23T04:28:07;100043.31;;;23.28;56.53
26539;BME280;14205;43.200;24.170;2022-07-23T04:30:33;100050.91;;;23.52;55.74
26539;BME280;14205;43.200;24.170;2022-07-23T04:32:58;100048.38;;;23.57;56.22
26539;BME280;14205;43.200;24.170;2022-07-23T04:35:24;100055.72;;;23.82;55.01
26539;BME280;14205;43.200;24.170;2022-07-23T04:37:50;100047.59;;;23.77;55.55
26539;BME280;14205;43.200;24.170;2022-07-23T04:40:15;100055.66;;;23.99;54.00
26539;BME280;14205;43.200;24.170;2022-07-23T04:42:41;100051.56;;;24.13;53.67
26539;BME280;14205;43.200;24.170;2022-07-23T04:45:07;100053.69;;;24.11;52.85
26539;BME280;14205;43.200;24.170;2022-07-23T04:47:32;100063.28;;;24.07;52.78
26539;BME280;14205;43.200;24.170;2022-07-23T04:49:58;100062.09;;;23.98;53.16
26539;BME280;14205;43.200;24.170;2022-07-23T04:52:24;100059.59;;;23.91;53.59
26539;BME280;14205;43.200;24.170;2022-07-23T04:54:49;100059.72;;;24.01;53.35
26539;BME280;14205;43.200;24.170;2022-07-23T04:57:15;100059.72;;;24.22;53.58
26539;BME280;14205;43.200;24.170;2022-07-23T04:59:40;100052.72;;;24.85;51.98
26539;BME280;14205;43.200;24.170;2022-07-23T05:02:06;100059.56;;;24.97;53.04
26539;BME280;14205;43.200;24.170;2022-07-23T05:04:31;100060.03;;;24.89;53.72
26539;BME280;14205;43.200;24.170;2022-07-23T05:06:57;100061.50;;;24.81;52.50
26539;BME280;14205;43.200;24.170;2022-07-23T05:09:23;100055.91;;;24.87;53.58
26539;BME280;14205;43.200;24.170;2022-07-23T05:11:49;100058.78;;;25.02;52.66
26539;BME280;14205;43.200;24.170;2022-07-23T05:14:14;100061.84;;;25.46;50.05
26539;BME280;14205;43.200;24.170;2022-07-23T05:16:40;100063.06;;;25.29;50.55
26539;BME280;14205;43.200;24.170;2022-07-23T05:19:05;100061.47;;;25.64;48.88
26539;BME280;14205;43.200;24.170;2022-07-23T05:21:31;100057.63;;;25.96;50.02
26539;BME280;14205;43.200;24.170;2022-07-23T05:23:56;100055.63;;;25.72;49.33
26539;BME280;14205;43.200;24.170;2022-07-23T05:26:21;100052.63;;;26.09;48.67
26539;BME280;14205;43.200;24.170;2022-07-23T05:28:47;100062.63;;;25.73;48.81
26539;BME280;14205;43.200;24.170;2022-07-23T05:31:12;100056.34;;;25.98;48.59
26539;BME280;14205;43.200;24.170;2022-07-23T05:33:38;100060.63;;;25.99;48.43
26539;BME280;14205;43.200;24.170;2022-07-23T05:36:04;100053.78;;;26.23;47.94
26539;BME280;14205;43.200;24.170;2022-07-23T05:38:30;100051.09;;;26.23;48.26
26539;BME280;14205;43.200;24.170;2022-07-23T05:40:56;100058.47;;;26.62;47.03
26539;BME280;14205;43.200;24.170;2022-07-23T05:43:22;100058.31;;;26.78;46.07
26539;BME280;14205;43.200;24.170;2022-07-23T05:45:47;100059.41;;;27.02;45.67
26539;BME280;14205;43.200;24.170;2022-07-23T05:48:12;100064.81;;;27.07;45.00
26539;BME280;14205;43.200;24.170;2022-07-23T05:50:38;100068.03;;;27.28;44.33
26539;BME280;14205;43.200;24.170;2022-07-23T05:53:03;100068.09;;;27.53;43.97
26539;BME280;14205;43.200;24.170;2022-07-23T05:55:29;100067.78;;;27.79;42.62
26539;BME280;14205;43.200;24.170;2022-07-23T05:57:57;100068.00;;;27.93;41.43
26539;BME280;14205;43.200;24.170;2022-07-23T06:00:22;100069.59;;;28.13;41.37
26539;BME280;14205;43.200;24.170;2022-07-23T06:02:48;100069.28;;;28.25;40.57
26539;BME280;14205;43.200;24.170;2022-07-23T06:05:13;100069.00;;;28.26;40.07
26539;BME280;14205;43.200;24.170;2022-07-23T06:07:39;100071.34;;;28.47;39.73
26539;BME280;14205;43.200;24.170;2022-07-23T06:10:04;100070.66;;;28.80;39.10
26539;BME280;14205;43.200;24.170;2022-07-23T06:12:30;100071.41;;;28.90;38.47
26539;BME280;14205;43.200;24.170;2022-07-23T06:14:56;100066.97;;;29.14;37.87
26539;BME280;14205;43.200;24.170;2022-07-23T06:17:21;100072.09;;;29.15;37.43
26539;BME280;14205;43.200;24.170;2022-07-23T06:19:46;100069.53;;;29.29;37.66
26539;BME280;14205;43.200;24.170;2022-07-23T06:22:12;100062.75;;;29.31;37.31
26539;BME280;14205;43.200;24.170;2022-07-23T06:24:37;100065.25;;;29.23;38.35
26539;BME280;14205;43.200;24.170;2022-07-23T06:27:04;100064.94;;;29.29;37.67
26539;BME280;14205;43.200;24.170;2022-07-23T06:29:29;100058.66;;;29.38;38.32
26539;BME280;14205;43.200;24.170;2022-07-23T06:31:55;100059.03;;;29.55;38.60
26539;BME280;14205;43.200;24.170;2022-07-23T06:34:20;100052.19;;;29.91;38.15
26539;BME280;14205;43.200;24.170;2022-07-23T06:36:46;100053.59;;;30.11;37.68
26539;BME280;14205;43.200;24.170;2022-07-23T06:39:11;100059.03;;;30.11;38.01
26539;BME280;14205;43.200;24.170;2022-07-23T06:41:36;100051.53;;;30.27;37.86
26539;BME280;14205;43.200;24.170;2022-07-23T06:44:02;100056.09;;;30.31;38.29
26539;BME280;14205;43.200;24.170;2022-07-23T06:46:28;100046.94;;;30.27;37.76
26539;BME280;14205;43.200;24.170;2022-07-23T06:48:53;100045.44;;;30.58;38.03
26539;BME280;14205;43.200;24.170;2022-07-23T06:51:18;100047.31;;;30.80;38.52
26539;BME280;14205;43.200;24.170;2022-07-23T06:53:44;100045.41;;;30.81;38.33
26539;BME280;14205;43.200;24.170;2022-07-23T06:56:10;100036.34;;;30.90;36.78
26539;BME280;14205;43.200;24.170;2022-07-23T06:58:35;100037.59;;;31.11;35.79
26539;BME280;14205;43.200;24.170;2022-07-23T07:01:01;100038.25;;;31.21;36.17
26539;BME280;14205;43.200;24.170;2022-07-23T07:03:26;100031.03;;;31.35;35.12
26539;BME280;14205;43.200;24.170;2022-07-23T07:05:52;100038.56;;;31.51;35.44
26539;BME280;14205;43.200;24.170;2022-07-23T07:08:18;100038.66;;;31.78;34.31
26539;BME280;14205;43.200;24.170;2022-07-23T07:10:43;100027.41;;;32.11;34.57
26539;BME280;14205;43.200;24.170;2022-07-23T07:13:09;100034.44;;;32.12;33.87
26539;BME280;14205;43.200;24.170;2022-07-23T07:15:34;100031.75;;;32.39;32.43
26539;BME280;14205;43.200;24.170;2022-07-23T07:18:00;100027.63;;;32.41;32.26
26539;BME280;14205;43.200;24.170;2022-07-23T07:20:25;100033.66;;;32.87;31.19
26539;BME280;14205;43.200;24.170;2022-07-23T07:22:51;100033.38;;;32.88;32.21
26539;BME280;14205;43.200;24.170;2022-07-23T07:25:16;100025.59;;;32.95;32.74
26539;BME280;14205;43.200;24.170;2022-07-23T07:27:42;100034.44;;;33.00;31.83
26539;BME280;14205;43.200;24.170;2022-07-23T07:30:10;100026.44;;;33.04;31.86
26539;BME280;14205;43.200;24.170;2022-07-23T07:32:36;100030.00;;;33.26;31.33
26539;BME280;14205;43.200;24.170;2022-07-23T07:35:05;100021.66;;;33.74;30.59
26539;BME280;14205;43.200;24.170;2022-07-23T07:37:31;100020.97;;;33.91;30.37
26539;BME280;14205;43.200;24.170;2022-07-23T07:39:56;100021.50;;;33.71;30.35
26539;BME280;14205;43.200;24.170;2022-07-23T07:42:22;100007.03;;;34.47;29.62
26539;BME280;14205;43.200;24.170;2022-07-23T07:44:47;100020.41;;;34.74;29.63
26539;BME280;14205;43.200;24.170;2022-07-23T07:47:13;100008.13;;;34.29;29.38
26539;BME280;14205;43.200;24.170;2022-07-23T07:49:41;100014.13;;;34.57;29.18
26539;BME280;14205;43.200;24.170;2022-07-23T07:52:06;100006.75;;;34.65;28.11
26539;BME280;14205;43.200;24.170;2022-07-23T07:54:31;100005.78;;;34.70;28.36
26539;BME280;14205;43.200;24.170;2022-07-23T07:56:57;100009.50;;;35.07;28.24
26539;BME280;14205;43.200;24.170;2022-07-23T07:59:23;100007.56;;;35.33;27.04
26539;BME280;14205;43.200;24.170;2022-07-23T08:01:48;100009.59;;;35.53;26.35
26539;BME280;14205;43.200;24.170;2022-07-23T08:04:14;100010.34;;;35.78;26.26
26539;BME280;14205;43.200;24.170;2022-07-23T08:06:39;100002.63;;;35.80;24.99
26539;BME280;14205;43.200;24.170;2022-07-23T08:09:05;100002.66;;;35.64;23.67
26539;BME280;14205;43.200;24.170;2022-07-23T08:11:30;100003.56;;;35.84;23.06
26539;BME280;14205;43.200;24.170;2022-07-23T08:13:56;100000.38;;;35.82;24.59
26539;BME280;14205;43.200;24.170;2022-07-23T08:16:21;100001.13;;;35.91;24.02
26539;BME280;14205;43.200;24.170;2022-07-23T08:18:47;99996.03;;;35.81;24.59
26539;BME280;14205;43.200;24.170;2022-07-23T08:21:12;100006.94;;;36.18;23.48
26539;BME280;14205;43.200;24.170;2022-07-23T08:23:38;99996.13;;;36.50;22.72
26539;BME280;14205;43.200;24.170;2022-07-23T08:26:03;99991.19;;;36.44;21.81
26539;BME280;14205;43.200;24.170;2022-07-23T08:28:29;100000.09;;;37.02;22.50
26539;BME280;14205;43.200;24.170;2022-07-23T08:30:58;100004.94;;;37.05;22.75
26539;BME280;14205;43.200;24.170;2022-07-23T08:33:23;99996.19;;;37.11;22.15
26539;BME280;14205;43.200;24.170;2022-07-23T08:35:50;99993.41;;;36.91;20.82
26539;BME280;14205;43.200;24.170;2022-07-23T08:38:19;99991.31;;;37.28;21.37
26539;BME280;14205;43.200;24.170;2022-07-23T08:40:53;99993.25;;;37.60;21.29
26539;BME280;14205;43.200;24.170;2022-07-23T08:43:23;99993.97;;;37.69;21.61
26539;BME280;14205;43.200;24.170;2022-07-23T08:45:53;99991.53;;;37.67;21.76
26539;BME280;14205;43.200;24.170;2022-07-23T08:48:24;99983.31;;;37.67;20.76
26539;BME280;14205;43.200;24.170;2022-07-23T08:50:52;99988.03;;;38.02;19.96
26539;BME280;14205;43.200;24.170;2022-07-23T08:53:19;99994.00;;;38.16;20.25
26539;BME280;14205;43.200;24.170;2022-07-23T08:55:46;99985.44;;;38.41;20.43
26539;BME280;14205;43.200;24.170;2022-07-23T08:58:12;99989.44;;;38.20;22.32
26539;BME280;14205;43.200;24.170;2022-07-23T09:00:38;99985.88;;;38.19;21.43
26539;BME280;14205;43.200;24.170;2022-07-23T09:03:03;99980.16;;;38.36;20.23
26539;BME280;14205;43.200;24.170;2022-07-23T09:05:29;99984.16;;;38.50;20.22
26539;BME280;14205;43.200;24.170;2022-07-23T09:10:29;99975.88;;;38.74;20.04
26539;BME280;14205;43.200;24.170;2022-07-23T09:12:56;99989.75;;;38.93;21.75
26539;BME280;14205;43.200;24.170;2022-07-23T09:15:22;99982.28;;;39.05;19.96
26539;BME280;14205;43.200;24.170;2022-07-23T09:17:47;99981.97;;;39.22;21.19
26539;BME280;14205;43.200;24.170;2022-07-23T09:20:15;99976.94;;;39.39;18.65
26539;BME280;14205;43.200;24.170;2022-07-23T09:22:47;99977.53;;;39.60;18.58
26539;BME280;14205;43.200;24.170;2022-07-23T09:25:18;99976.75;;;39.59;18.77
26539;BME280;14205;43.200;24.170;2022-07-23T09:27:58;99976.56;;;39.68;20.07
26539;BME280;14205;43.200;24.170;2022-07-23T09:30:29;99972.63;;;39.38;19.30
26539;BME280;14205;43.200;24.170;2022-07-23T09:36:03;99971.94;;;39.56;19.59
26539;BME280;14205;43.200;24.170;2022-07-23T09:38:28;99973.03;;;39.67;19.41
26539;BME280;14205;43.200;24.170;2022-07-23T09:41:10;99968.16;;;39.61;20.62
26539;BME280;14205;43.200;24.170;2022-07-23T09:43:36;99965.31;;;39.73;21.46
26539;BME280;14205;43.200;24.170;2022-07-23T09:46:22;99963.97;;;39.82;19.59
26539;BME280;14205;43.200;24.170;2022-07-23T09:48:55;99960.97;;;39.87;20.05
26539;BME280;14205;43.200;24.170;2022-07-23T09:51:22;99958.88;;;40.30;19.64
26539;BME280;14205;43.200;24.170;2022-07-23T09:53:53;99965.81;;;40.58;20.67
26539;BME280;14205;43.200;24.170;2022-07-23T09:56:20;99962.44;;;40.83;19.16
26539;BME280;14205;43.200;24.170;2022-07-23T09:58:45;99959.00;;;41.08;20.96
26539;BME280;14205;43.200;24.170;2022-07-23T10:01:14;99964.16;;;40.91;18.47
26539;BME280;14205;43.200;24.170;2022-07-23T10:03:41;99960.75;;;40.60;18.95
26539;BME280;14205;43.200;24.170;2022-07-23T10:06:09;99955.69;;;40.62;19.39
26539;BME280;14205;43.200;24.170;2022-07-23T10:08:35;99949.38;;;40.62;18.47
26539;BME280;14205;43.200;24.170;2022-07-23T10:11:01;99950.66;;;40.67;18.02
26539;BME280;14205;43.200;24.170;2022-07-23T10:13:27;99942.34;;;40.64;18.59
26539;BME280;14205;43.200;24.170;2022-07-23T10:16:12;99951.53;;;40.71;20.27
26539;BME280;14205;43.200;24.170;2022-07-23T10:18:37;99949.66;;;40.75;19.25
26539;BME280;14205;43.200;24.170;2022-07-23T10:21:05;99936.50;;;40.31;20.01
26539;BME280;14205;43.200;24.170;2022-07-23T10:23:58;99935.91;;;40.94;20.78
26539;BME280;14205;43.200;24.170;2022-07-23T10:29:52;99921.28;;;41.12;19.78
26539;BME280;14205;43.200;24.170;2022-07-23T10:37:30;99915.84;;;41.16;19.96
26539;BME280;14205;43.200;24.170;2022-07-23T10:40:16;99916.94;;;41.11;19.48
26539;BME280;14205;43.200;24.170;2022-07-23T10:42:46;99911.56;;;41.59;20.01
26539;BME280;14205;43.200;24.170;2022-07-23T10:45:31;99909.56;;;41.82;19.63
26539;BME280;14205;43.200;24.170;2022-07-23T10:48:25;99914.84;;;41.68;19.24
26539;BME280;14205;43.200;24.170;2022-07-23T10:51:14;99900.44;;;41.33;19.01
26539;BME280;14205;43.200;24.170;2022-07-23T10:56:14;99900.00;;;41.76;18.35
26539;BME280;14205;43.200;24.170;2022-07-23T10:58:48;99888.91;;;41.50;19.90
26539;BME280;14205;43.200;24.170;2022-07-23T11:01:36;99898.22;;;41.42;18.01
26539;BME280;14205;43.200;24.170;2022-07-23T11:04:04;99895.91;;;41.44;18.50
26539;BME280;14205;43.200;24.170;2022-07-23T11:17:32;99870.03;;;42.55;18.12
26539;BME280;14205;43.200;24.170;2022-07-23T11:22:40;99860.94;;;42.25;17.03
26539;BME280;14205;43.200;24.170;2022-07-23T11:25:12;99872.38;;;42.85;16.81
26539;BME280;14205;43.200;24.170;2022-07-23T11:27:45;99877.53;;;42.87;16.23
26539;BME280;14205;43.200;24.170;2022-07-23T11:35:33;99855.97;;;43.45;16.65
26539;BME280;14205;43.200;24.170;2022-07-23T11:38:07;99849.81;;;43.19;15.30
26539;BME280;14205;43.200;24.170;2022-07-23T11:40:34;99848.16;;;43.11;15.70
26539;BME280;14205;43.200;24.170;2022-07-23T11:43:01;99861.34;;;42.89;15.33
26539;BME280;14205;43.200;24.170;2022-07-23T11:45:33;99859.81;;;42.59;15.04
26539;BME280;14205;43.200;24.170;2022-07-23T11:47:58;99855.56;;;43.43;14.93
26539;BME280;14205;43.200;24.170;2022-07-23T11:50:24;99854.69;;;43.82;16.11
26539;BME280;14205;43.200;24.170;2022-07-23T11:52:53;99857.06;;;44.54;17.10
26539;BME280;14205;43.200;24.170;2022-07-23T11:55:19;99849.72;;;45.27;14.05
26539;BME280;14205;43.200;24.170;2022-07-23T11:57:45;99853.34;;;45.42;14.04
26539;BME280;14205;43.200;24.170;2022-07-23T12:00:17;99845.78;;;45.53;13.32
26539;BME280;14205;43.200;24.170;2022-07-23T12:02:46;99844.22;;;45.79;13.87
26539;BME280;14205;43.200;24.170;2022-07-23T12:05:23;99841.81;;;45.47;14.39
26539;BME280;14205;43.200;24.170;2022-07-23T12:07:51;99846.59;;;45.32;15.29
26539;BME280;14205;43.200;24.170;2022-07-23T12:12:54;99840.63;;;45.82;13.75
26539;BME280;14205;43.200;24.170;2022-07-23T12:17:52;99835.63;;;47.23;12.56
26539;BME280;14205;43.200;24.170;2022-07-23T12:20:21;99818.72;;;46.22;13.14
26539;BME280;14205;43.200;24.170;2022-07-23T12:22:49;99829.13;;;45.32;14.48
26539;BME280;14205;43.200;24.170;2022-07-23T12:25:17;99831.84;;;45.97;13.41
26539;BME280;14205;43.200;24.170;2022-07-23T12:27:43;99826.41;;;46.72;13.49
26539;BME280;14205;43.200;24.170;2022-07-23T12:32:48;99815.00;;;47.60;12.43
26539;BME280;14205;43.200;24.170;2022-07-23T12:35:14;99813.88;;;48.27;11.52
26539;BME280;14205;43.200;24.170;2022-07-23T12:37:42;99808.59;;;48.03;12.24
26539;BME280;14205;43.200;24.170;2022-07-23T12:40:30;99814.69;;;47.55;12.06
26539;BME280;14205;43.200;24.170;2022-07-23T12:42:59;99805.25;;;48.48;11.27
26539;BME280;14205;43.200;24.170;2022-07-23T12:45:25;99806.84;;;48.16;11.84
26539;BME280;14205;43.200;24.170;2022-07-23T12:47:52;99802.34;;;47.92;11.99
26539;BME280;14205;43.200;24.170;2022-07-23T12:53:24;99796.09;;;47.81;12.51
26539;BME280;14205;43.200;24.170;2022-07-23T12:55:57;99805.41;;;49.19;10.89
26539;BME280;14205;43.200;24.170;2022-07-23T12:58:24;99796.25;;;48.04;12.17
26539;BME280;14205;43.200;24.170;2022-07-23T13:00:59;99792.28;;;48.02;11.32
26539;BME280;14205;43.200;24.170;2022-07-23T13:03:32;99785.50;;;48.03;11.39
26539;BME280;14205;43.200;24.170;2022-07-23T13:05:59;99792.19;;;48.41;11.33
26539;BME280;14205;43.200;24.170;2022-07-23T13:08:27;99785.81;;;48.08;11.00
26539;BME280;14205;43.200;24.170;2022-07-23T13:10:54;99788.47;;;48.22;11.34
26539;BME280;14205;43.200;24.170;2022-07-23T13:13:25;99784.41;;;48.85;11.18
26539;BME280;14205;43.200;24.170;2022-07-23T13:15:52;99783.16;;;47.21;12.18
26539;BME280;14205;43.200;24.170;2022-07-23T13:18:18;99777.47;;;46.14;12.36
26539;BME280;14205;43.200;24.170;2022-07-23T13:20:45;99768.13;;;45.46;13.48
26539;BME280;14205;43.200;24.170;2022-07-23T13:23:12;99770.06;;;45.56;13.16
26539;BME280;14205;43.200;24.170;2022-07-23T13:25:38;99776.34;;;46.72;13.40
26539;BME280;14205;43.200;24.170;2022-07-23T13:28:03;99773.53;;;46.79;12.10
26539;BME280;14205;43.200;24.170;2022-07-23T13:30:29;99773.03;;;47.41;12.25